sensor_id;sensor_type;location;lat;lon;timestamp;P1;durP1;ratioP1;P2;durP2;ratioP2
9270;SDS011;4673;53.458;9.940;2023-09-12T00:01:04;2.97;;;2.97;;
9270;SDS011;4673;53.458;9.940;2023-09-12T00:03:31;3.20;;;3.20;;
9270;SDS011;4673;53.458;9.940;2023-09-12T00:05:58;3.72;;;3.72;;
9270;SDS011;4673;53.458;9.940;2023-09-12T00:08:25;4.18;;;4.18;;
9270;SDS011;4673;53.458;9.940;2023-09-12T00:10:58;3.63;;;3.63;;
9270;SDS011;4673;53.458;9.940;2023-09-12T00:13:31;3.30;;;3.30;;
9270;SDS011;4673;53.458;9.940;2023-09-12T00:15:57;3.78;;;3.78;;
9270;SDS011;4673;53.458;9.940;2023-09-12T00:18:23;4.00;;;4.00;;
9270;SDS011;4673;53.458;9.940;2023-09-12T00:20:50;4.22;;;4.22;;
9270;SDS011;4673;53.458;9.940;2023-09-12T00:23:17;4.57;;;4.57;;
9270;SDS011;4673;53.458;9.940;2023-09-12T00:25:43;3.10;;;3.10;;
9270;SDS011;4673;53.458;9.940;2023-09-12T00:28:09;3.08;;;3.08;;
9270;SDS011;4673;53.458;9.940;2023-09-12T00:30:34;3.70;;;3.70;;
9270;SDS011;4673;53.458;9.940;2023-09-12T00:33:00;3.40;;;3.40;;
9270;SDS011;4673;53.458;9.940;2023-09-12T00:35:25;3.53;;;3.53;;
9270;SDS011;4673;53.458;9.940;2023-09-12T00:37:51;3.20;;;3.20;;
9270;SDS011;4673;53.458;9.940;2023-09-12T00:40:17;4.00;;;4.00;;
9270;SDS011;4673;53.458;9.940;2023-09-12T00:42:43;3.58;;;3.58;;
9270;SDS011;4673;53.458;9.940;2023-09-12T00:45:08;2.90;;;2.90;;
9270;SDS011;4673;53.458;9.940;2023-09-12T00:47:34;2.63;;;2.63;;
9270;SDS011;4673;53.458;9.940;2023-09-12T00:50:01;3.70;;;3.70;;
9270;SDS011;4673;53.458;9.940;2023-09-12T00:52:28;3.00;;;3.00;;
9270;SDS011;4673;53.458;9.940;2023-09-12T00:54:56;2.97;;;2.97;;
9270;SDS011;4673;53.458;9.940;2023-09-12T00:57:22;2.75;;;2.75;;
9270;SDS011;4673;53.458;9.940;2023-09-12T00:59:49;3.13;;;3.13;;
9270;SDS011;4673;53.458;9.940;2023-09-12T01:02:15;3.20;;;3.20;;
9270;SDS011;4673;53.458;9.940;2023-09-12T01:04:41;3.80;;;3.80;;
9270;SDS011;4673;53.458;9.940;2023-09-12T01:07:07;3.63;;;3.63;;
9270;SDS011;4673;53.458;9.940;2023-09-12T01:09:33;3.53;;;3.53;;
9270;SDS011;4673;53.458;9.940;2023-09-12T01:11:59;3.35;;;3.35;;
9270;SDS011;4673;53.458;9.940;2023-09-12T01:14:28;2.78;;;2.78;;
9270;SDS011;4673;53.458;9.940;2023-09-12T01:16:54;4.00;;;4.00;;
9270;SDS011;4673;53.458;9.940;2023-09-12T01:19:20;3.35;;;3.35;;
9270;SDS011;4673;53.458;9.940;2023-09-12T01:26:52;2.97;;;2.97;;
9270;SDS011;4673;53.458;9.940;2023-09-12T01:29:39;2.42;;;2.42;;
9270;SDS011;4673;53.458;9.940;2023-09-12T01:32:07;3.25;;;3.25;;
9270;SDS011;4673;53.458;9.940;2023-09-12T01:34:34;3.33;;;3.33;;
9270;SDS011;4673;53.458;9.940;2023-09-12T01:37:00;2.55;;;2.55;;
9270;SDS011;4673;53.458;9.940;2023-09-12T01:39:26;3.30;;;3.30;;
9270;SDS011;4673;53.458;9.940;2023-09-12T01:41:51;3.13;;;3.13;;
9270;SDS011;4673;53.458;9.940;2023-09-12T01:44:19;3.65;;;3.65;;
9270;SDS011;4673;53.458;9.940;2023-09-12T01:46:49;2.78;;;2.78;;
9270;SDS011;4673;53.458;9.940;2023-09-12T01:49:15;3.88;;;3.88;;
9270;SDS011;4673;53.458;9.940;2023-09-12T01:51:43;4.07;;;4.07;;
9270;SDS011;4673;53.458;9.940;2023-09-12T01:54:08;3.13;;;3.13;;
9270;SDS011;4673;53.458;9.940;2023-09-12T01:56:35;3.83;;;3.83;;
9270;SDS011;4673;53.458;9.940;2023-09-12T01:59:02;2.80;;;2.80;;
9270;SDS011;4673;53.458;9.940;2023-09-12T02:01:28;3.53;;;3.53;;
9270;SDS011;4673;53.458;9.940;2023-09-12T02:03:53;3.83;;;3.83;;
9270;SDS011;4673;53.458;9.940;2023-09-12T02:06:19;2.88;;;2.88;;
9270;SDS011;4673;53.458;9.940;2023-09-12T02:08:44;2.53;;;2.53;;
9270;SDS011;4673;53.458;9.940;2023-09-12T02:11:10;2.83;;;2.83;;
9270;SDS011;4673;53.458;9.940;2023-09-12T02:13:35;3.05;;;3.05;;
9270;SDS011;4673;53.458;9.940;2023-09-12T02:16:01;3.38;;;3.38;;
9270;SDS011;4673;53.458;9.940;2023-09-12T02:18:28;3.15;;;3.15;;
9270;SDS011;4673;53.458;9.940;2023-09-12T02:20:54;3.88;;;3.88;;
9270;SDS011;4673;53.458;9.940;2023-09-12T02:23:19;3.53;;;3.53;;
9270;SDS011;4673;53.458;9.940;2023-09-12T02:25:45;2.42;;;2.42;;
9270;SDS011;4673;53.458;9.940;2023-09-12T02:28:10;2.95;;;2.95;;
9270;SDS011;4673;53.458;9.940;2023-09-12T02:30:39;4.13;;;4.13;;
9270;SDS011;4673;53.458;9.940;2023-09-12T02:33:08;2.80;;;2.80;;
9270;SDS011;4673;53.458;9.940;2023-09-12T02:35:33;3.58;;;3.58;;
9270;SDS011;4673;53.458;9.940;2023-09-12T02:37:59;3.13;;;3.13;;
9270;SDS011;4673;53.458;9.940;2023-09-12T02:40:24;3.45;;;3.45;;
9270;SDS011;4673;53.458;9.940;2023-09-12T02:42:50;3.85;;;3.85;;
9270;SDS011;4673;53.458;9.940;2023-09-12T02:45:17;2.63;;;2.63;;
9270;SDS011;4673;53.458;9.940;2023-09-12T02:47:42;2.78;;;2.78;;
9270;SDS011;4673;53.458;9.940;2023-09-12T02:50:08;3.45;;;3.45;;
9270;SDS011;4673;53.458;9.940;2023-09-12T02:52:34;2.67;;;2.67;;
9270;SDS011;4673;53.458;9.940;2023-09-12T02:55:00;3.05;;;3.05;;
9270;SDS011;4673;53.458;9.940;2023-09-12T02:57:26;3.13;;;3.13;;
9270;SDS011;4673;53.458;9.940;2023-09-12T02:59:51;3.13;;;3.13;;
9270;SDS011;4673;53.458;9.940;2023-09-12T03:02:17;3.15;;;3.15;;
9270;SDS011;4673;53.458;9.940;2023-09-12T03:04:42;3.08;;;3.08;;
9270;SDS011;4673;53.458;9.940;2023-09-12T03:07:08;3.63;;;3.63;;
9270;SDS011;4673;53.458;9.940;2023-09-12T03:09:34;2.65;;;2.65;;
9270;SDS011;4673;53.458;9.940;2023-09-12T03:12:03;2.88;;;2.88;;
9270;SDS011;4673;53.458;9.940;2023-09-12T03:14:29;3.22;;;3.22;;
9270;SDS011;4673;53.458;9.940;2023-09-12T03:16:55;3.20;;;3.20;;
9270;SDS011;4673;53.458;9.940;2023-09-12T03:19:21;3.10;;;3.10;;
9270;SDS011;4673;53.458;9.940;2023-09-12T03:21:47;2.72;;;2.72;;
9270;SDS011;4673;53.458;9.940;2023-09-12T03:24:12;3.17;;;3.17;;
9270;SDS011;4673;53.458;9.940;2023-09-12T03:26:38;2.70;;;2.70;;
9270;SDS011;4673;53.458;9.940;2023-09-12T03:29:04;2.90;;;2.90;;
9270;SDS011;4673;53.458;9.940;2023-09-12T03:31:30;3.17;;;3.17;;
9270;SDS011;4673;53.458;9.940;2023-09-12T03:33:56;2.80;;;2.80;;
9270;SDS011;4673;53.458;9.940;2023-09-12T03:36:21;3.15;;;3.15;;
9270;SDS011;4673;53.458;9.940;2023-09-12T03:38:47;2.38;;;2.38;;
9270;SDS011;4673;53.458;9.940;2023-09-12T03:41:13;3.33;;;3.33;;
9270;SDS011;4673;53.458;9.940;2023-09-12T03:43:38;3.35;;;3.35;;
9270;SDS011;4673;53.458;9.940;2023-09-12T03:46:04;2.80;;;2.80;;
9270;SDS011;4673;53.458;9.940;2023-09-12T03:48:30;3.08;;;3.08;;
9270;SDS011;4673;53.458;9.940;2023-09-12T03:50:56;2.40;;;2.40;;
9270;SDS011;4673;53.458;9.940;2023-09-12T03:53:22;2.70;;;2.70;;
9270;SDS011;4673;53.458;9.940;2023-09-12T03:55:48;3.92;;;3.92;;
9270;SDS011;4673;53.458;9.940;2023-09-12T03:58:13;2.35;;;2.35;;
9270;SDS011;4673;53.458;9.940;2023-09-12T04:00:39;3.22;;;3.22;;
9270;SDS011;4673;53.458;9.940;2023-09-12T04:03:05;2.90;;;2.90;;
9270;SDS011;4673;53.458;9.940;2023-09-12T04:05:31;1.77;;;1.77;;
9270;SDS011;4673;53.458;9.940;2023-09-12T04:07:56;3.00;;;3.00;;
9270;SDS011;4673;53.458;9.940;2023-09-12T04:10:22;2.72;;;2.72;;
9270;SDS011;4673;53.458;9.940;2023-09-12T04:12:48;2.50;;;2.50;;
9270;SDS011;4673;53.458;9.940;2023-09-12T04:15:13;2.30;;;2.30;;
9270;SDS011;4673;53.458;9.940;2023-09-12T04:17:39;2.70;;;2.70;;
9270;SDS011;4673;53.458;9.940;2023-09-12T04:20:05;1.85;;;1.85;;
9270;SDS011;4673;53.458;9.940;2023-09-12T04:22:31;2.58;;;2.58;;
9270;SDS011;4673;53.458;9.940;2023-09-12T04:24:57;2.30;;;2.30;;
9270;SDS011;4673;53.458;9.940;2023-09-12T04:27:23;2.65;;;2.65;;
9270;SDS011;4673;53.458;9.940;2023-09-12T04:29:48;2.13;;;2.13;;
9270;SDS011;4673;53.458;9.940;2023-09-12T04:32:14;2.97;;;2.97;;
9270;SDS011;4673;53.458;9.940;2023-09-12T04:34:44;2.88;;;2.88;;
9270;SDS011;4673;53.458;9.940;2023-09-12T04:37:10;2.65;;;2.65;;
9270;SDS011;4673;53.458;9.940;2023-09-12T04:39:35;2.40;;;2.40;;
9270;SDS011;4673;53.458;9.940;2023-09-12T04:42:01;2.05;;;2.05;;
9270;SDS011;4673;53.458;9.940;2023-09-12T04:44:28;2.50;;;2.50;;
9270;SDS011;4673;53.458;9.940;2023-09-12T04:46:54;2.75;;;2.75;;
9270;SDS011;4673;53.458;9.940;2023-09-12T04:49:20;2.65;;;2.65;;
9270;SDS011;4673;53.458;9.940;2023-09-12T04:51:46;2.65;;;2.65;;
9270;SDS011;4673;53.458;9.940;2023-09-12T04:54:11;2.45;;;2.45;;
9270;SDS011;4673;53.458;9.940;2023-09-12T04:56:37;2.05;;;2.05;;
9270;SDS011;4673;53.458;9.940;2023-09-12T04:59:02;2.45;;;2.45;;
9270;SDS011;4673;53.458;9.940;2023-09-12T05:01:28;2.17;;;2.17;;
9270;SDS011;4673;53.458;9.940;2023-09-12T05:03:54;2.20;;;2.20;;
9270;SDS011;4673;53.458;9.940;2023-09-12T05:06:19;2.25;;;2.25;;
9270;SDS011;4673;53.458;9.940;2023-09-12T05:08:45;2.90;;;2.90;;
9270;SDS011;4673;53.458;9.940;2023-09-12T05:11:11;2.42;;;2.42;;
9270;SDS011;4673;53.458;9.940;2023-09-12T05:13:36;1.67;;;1.67;;
9270;SDS011;4673;53.458;9.940;2023-09-12T05:16:02;2.78;;;2.78;;
9270;SDS011;4673;53.458;9.940;2023-09-12T05:18:27;2.38;;;2.38;;
9270;SDS011;4673;53.458;9.940;2023-09-12T05:20:53;3.20;;;3.20;;
9270;SDS011;4673;53.458;9.940;2023-09-12T05:23:19;2.25;;;2.25;;
9270;SDS011;4673;53.458;9.940;2023-09-12T05:25:45;2.67;;;2.67;;
9270;SDS011;4673;53.458;9.940;2023-09-12T05:28:10;2.45;;;2.45;;
9270;SDS011;4673;53.458;9.940;2023-09-12T05:30:36;2.67;;;2.67;;
9270;SDS011;4673;53.458;9.940;2023-09-12T05:33:02;2.65;;;2.65;;
9270;SDS011;4673;53.458;9.940;2023-09-12T05:35:28;2.08;;;2.08;;
9270;SDS011;4673;53.458;9.940;2023-09-12T05:37:53;2.05;;;2.05;;
9270;SDS011;4673;53.458;9.940;2023-09-12T05:40:19;2.42;;;2.42;;
9270;SDS011;4673;53.458;9.940;2023-09-12T05:42:44;2.45;;;2.45;;
9270;SDS011;4673;53.458;9.940;2023-09-12T05:45:10;2.35;;;2.35;;
9270;SDS011;4673;53.458;9.940;2023-09-12T05:47:36;2.33;;;2.33;;
9270;SDS011;4673;53.458;9.940;2023-09-12T05:50:01;2.03;;;2.03;;
9270;SDS011;4673;53.458;9.940;2023-09-12T05:52:30;2.67;;;2.67;;
9270;SDS011;4673;53.458;9.940;2023-09-12T05:54:56;2.15;;;2.15;;
9270;SDS011;4673;53.458;9.940;2023-09-12T05:57:22;1.88;;;1.88;;
9270;SDS011;4673;53.458;9.940;2023-09-12T05:59:47;1.92;;;1.92;;
9270;SDS011;4673;53.458;9.940;2023-09-12T06:02:13;2.30;;;2.30;;
9270;SDS011;4673;53.458;9.940;2023-09-12T06:04:38;2.13;;;2.13;;
9270;SDS011;4673;53.458;9.940;2023-09-12T06:07:04;2.38;;;2.38;;
9270;SDS011;4673;53.458;9.940;2023-09-12T06:09:30;2.50;;;2.50;;
9270;SDS011;4673;53.458;9.940;2023-09-12T06:11:56;2.60;;;2.60;;
9270;SDS011;4673;53.458;9.940;2023-09-12T06:14:21;1.95;;;1.95;;
9270;SDS011;4673;53.458;9.940;2023-09-12T06:16:47;2.33;;;2.33;;
9270;SDS011;4673;53.458;9.940;2023-09-12T06:19:13;2.70;;;2.70;;
9270;SDS011;4673;53.458;9.940;2023-09-12T06:21:39;2.17;;;2.17;;
9270;SDS011;4673;53.458;9.940;2023-09-12T06:26:39;2.72;;;2.72;;
9270;SDS011;4673;53.458;9.940;2023-09-12T06:29:05;2.83;;;2.83;;
9270;SDS011;4673;53.458;9.940;2023-09-12T06:31:31;1.85;;;1.85;;
9270;SDS011;4673;53.458;9.940;2023-09-12T06:33:57;1.63;;;1.63;;
9270;SDS011;4673;53.458;9.940;2023-09-12T06:36:24;1.98;;;1.98;;
9270;SDS011;4673;53.458;9.940;2023-09-12T06:38:50;1.88;;;1.88;;
9270;SDS011;4673;53.458;9.940;2023-09-12T06:41:18;2.40;;;2.40;;
9270;SDS011;4673;53.458;9.940;2023-09-12T06:43:44;1.95;;;1.95;;
9270;SDS011;4673;53.458;9.940;2023-09-12T06:46:10;2.10;;;2.10;;
9270;SDS011;4673;53.458;9.940;2023-09-12T06:48:36;1.80;;;1.80;;
9270;SDS011;4673;53.458;9.940;2023-09-12T06:51:04;1.90;;;1.90;;
9270;SDS011;4673;53.458;9.940;2023-09-12T06:53:30;2.03;;;2.03;;
9270;SDS011;4673;53.458;9.940;2023-09-12T06:55:56;2.28;;;2.28;;
9270;SDS011;4673;53.458;9.940;2023-09-12T06:58:25;1.58;;;1.58;;
9270;SDS011;4673;53.458;9.940;2023-09-12T07:00:51;1.90;;;1.90;;
9270;SDS011;4673;53.458;9.940;2023-09-12T07:03:16;2.35;;;2.35;;
9270;SDS011;4673;53.458;9.940;2023-09-12T07:05:42;1.98;;;1.98;;
9270;SDS011;4673;53.458;9.940;2023-09-12T07:08:09;2.35;;;2.35;;
9270;SDS011;4673;53.458;9.940;2023-09-12T07:10:35;2.22;;;2.22;;
9270;SDS011;4673;53.458;9.940;2023-09-12T07:13:01;2.58;;;2.58;;
9270;SDS011;4673;53.458;9.940;2023-09-12T07:15:27;2.40;;;2.40;;
9270;SDS011;4673;53.458;9.940;2023-09-12T07:17:53;2.80;;;2.80;;
9270;SDS011;4673;53.458;9.940;2023-09-12T07:20:18;2.17;;;2.17;;
9270;SDS011;4673;53.458;9.940;2023-09-12T07:22:45;2.22;;;2.22;;
9270;SDS011;4673;53.458;9.940;2023-09-12T07:25:11;2.05;;;2.05;;
9270;SDS011;4673;53.458;9.940;2023-09-12T07:27:38;2.17;;;2.17;;
9270;SDS011;4673;53.458;9.940;2023-09-12T07:30:05;2.80;;;2.80;;
9270;SDS011;4673;53.458;9.940;2023-09-12T07:32:31;1.85;;;1.85;;
9270;SDS011;4673;53.458;9.940;2023-09-12T07:34:57;2.13;;;2.13;;
9270;SDS011;4673;53.458;9.940;2023-09-12T07:37:23;1.83;;;1.83;;
9270;SDS011;4673;53.458;9.940;2023-09-12T07:39:48;2.22;;;2.22;;
9270;SDS011;4673;53.458;9.940;2023-09-12T07:42:14;2.33;;;2.33;;
9270;SDS011;4673;53.458;9.940;2023-09-12T07:44:39;1.67;;;1.67;;
9270;SDS011;4673;53.458;9.940;2023-09-12T07:47:05;2.40;;;2.40;;
9270;SDS011;4673;53.458;9.940;2023-09-12T07:49:32;2.25;;;2.25;;
9270;SDS011;4673;53.458;9.940;2023-09-12T07:51:57;2.40;;;2.40;;
9270;SDS011;4673;53.458;9.940;2023-09-12T07:54:23;2.13;;;2.13;;
9270;SDS011;4673;53.458;9.940;2023-09-12T07:56:48;1.63;;;1.63;;
9270;SDS011;4673;53.458;9.940;2023-09-12T07:59:14;2.30;;;2.30;;
9270;SDS011;4673;53.458;9.940;2023-09-12T08:01:40;2.28;;;2.28;;
9270;SDS011;4673;53.458;9.940;2023-09-12T08:04:05;2.08;;;2.08;;
9270;SDS011;4673;53.458;9.940;2023-09-12T08:06:34;2.63;;;2.63;;
9270;SDS011;4673;53.458;9.940;2023-09-12T08:09:00;1.75;;;1.75;;
9270;SDS011;4673;53.458;9.940;2023-09-12T08:11:25;2.25;;;2.25;;
9270;SDS011;4673;53.458;9.940;2023-09-12T08:13:52;2.25;;;2.25;;
9270;SDS011;4673;53.458;9.940;2023-09-12T08:16:17;1.85;;;1.85;;
9270;SDS011;4673;53.458;9.940;2023-09-12T08:18:43;1.52;;;1.52;;
9270;SDS011;4673;53.458;9.940;2023-09-12T08:21:09;2.35;;;2.35;;
9270;SDS011;4673;53.458;9.940;2023-09-12T08:23:35;2.83;;;2.83;;
9270;SDS011;4673;53.458;9.940;2023-09-12T08:26:01;1.92;;;1.92;;
9270;SDS011;4673;53.458;9.940;2023-09-12T08:28:27;1.67;;;1.67;;
9270;SDS011;4673;53.458;9.940;2023-09-12T08:30:52;1.95;;;1.95;;
9270;SDS011;4673;53.458;9.940;2023-09-12T08:33:18;2.97;;;2.97;;
9270;SDS011;4673;53.458;9.940;2023-09-12T08:35:44;1.95;;;1.95;;
9270;SDS011;4673;53.458;9.940;2023-09-12T08:38:10;2.38;;;2.38;;
9270;SDS011;4673;53.458;9.940;2023-09-12T08:40:51;2.50;;;2.50;;
9270;SDS011;4673;53.458;9.940;2023-09-12T08:43:17;2.33;;;2.33;;
9270;SDS011;4673;53.458;9.940;2023-09-12T08:45:43;2.47;;;2.47;;
9270;SDS011;4673;53.458;9.940;2023-09-12T08:48:09;2.78;;;2.78;;
9270;SDS011;4673;53.458;9.940;2023-09-12T08:50:36;2.33;;;2.33;;
9270;SDS011;4673;53.458;9.940;2023-09-12T08:53:02;1.90;;;1.90;;
9270;SDS011;4673;53.458;9.940;2023-09-12T08:55:28;2.28;;;2.28;;
9270;SDS011;4673;53.458;9.940;2023-09-12T08:57:55;1.95;;;1.95;;
9270;SDS011;4673;53.458;9.940;2023-09-12T09:00:21;2.33;;;2.33;;
9270;SDS011;4673;53.458;9.940;2023-09-12T09:02:48;1.85;;;1.85;;
9270;SDS011;4673;53.458;9.940;2023-09-12T09:05:15;2.35;;;2.35;;
9270;SDS011;4673;53.458;9.940;2023-09-12T09:07:42;2.88;;;2.88;;
9270;SDS011;4673;53.458;9.940;2023-09-12T09:10:18;3.22;;;3.22;;
9270;SDS011;4673;53.458;9.940;2023-09-12T09:12:45;2.03;;;2.03;;
9270;SDS011;4673;53.458;9.940;2023-09-12T09:17:52;3.10;;;3.10;;
9270;SDS011;4673;53.458;9.940;2023-09-12T09:20:36;3.20;;;3.20;;
9270;SDS011;4673;53.458;9.940;2023-09-12T09:23:09;2.25;;;2.25;;
9270;SDS011;4673;53.458;9.940;2023-09-12T09:25:36;2.72;;;2.72;;
9270;SDS011;4673;53.458;9.940;2023-09-12T09:28:07;2.80;;;2.80;;
9270;SDS011;4673;53.458;9.940;2023-09-12T09:30:45;2.80;;;2.80;;
9270;SDS011;4673;53.458;9.940;2023-09-12T09:33:12;3.42;;;3.42;;
9270;SDS011;4673;53.458;9.940;2023-09-12T09:35:41;2.85;;;2.85;;
9270;SDS011;4673;53.458;9.940;2023-09-12T09:38:07;3.03;;;3.03;;
9270;SDS011;4673;53.458;9.940;2023-09-12T09:40:33;2.85;;;2.85;;
9270;SDS011;4673;53.458;9.940;2023-09-12T09:43:00;3.30;;;3.30;;
9270;SDS011;4673;53.458;9.940;2023-09-12T09:45:27;2.83;;;2.83;;
9270;SDS011;4673;53.458;9.940;2023-09-12T09:47:57;3.15;;;3.15;;
9270;SDS011;4673;53.458;9.940;2023-09-12T09:50:35;2.83;;;2.83;;
9270;SDS011;4673;53.458;9.940;2023-09-12T09:53:04;3.35;;;3.35;;
9270;SDS011;4673;53.458;9.940;2023-09-12T09:55:33;2.80;;;2.80;;
9270;SDS011;4673;53.458;9.940;2023-09-12T09:57:59;2.80;;;2.80;;
9270;SDS011;4673;53.458;9.940;2023-09-12T10:00:25;3.53;;;3.53;;
9270;SDS011;4673;53.458;9.940;2023-09-12T10:02:53;2.88;;;2.88;;
9270;SDS011;4673;53.458;9.940;2023-09-12T10:05:21;2.92;;;2.92;;
9270;SDS011;4673;53.458;9.940;2023-09-12T10:07:48;2.85;;;2.85;;
9270;SDS011;4673;53.458;9.940;2023-09-12T10:10:18;2.72;;;2.72;;
9270;SDS011;4673;53.458;9.940;2023-09-12T10:12:51;2.45;;;2.45;;
9270;SDS011;4673;53.458;9.940;2023-09-12T10:15:19;3.00;;;3.00;;
9270;SDS011;4673;53.458;9.940;2023-09-12T10:17:50;3.03;;;3.03;;
9270;SDS011;4673;53.458;9.940;2023-09-12T10:20:21;3.03;;;3.03;;
9270;SDS011;4673;53.458;9.940;2023-09-12T10:22:52;2.97;;;2.97;;
9270;SDS011;4673;53.458;9.940;2023-09-12T10:25:19;2.83;;;2.83;;
9270;SDS011;4673;53.458;9.940;2023-09-12T10:27:45;3.28;;;3.28;;
9270;SDS011;4673;53.458;9.940;2023-09-12T10:30:12;2.92;;;2.92;;
9270;SDS011;4673;53.458;9.940;2023-09-12T10:32:38;2.75;;;2.75;;
9270;SDS011;4673;53.458;9.940;2023-09-12T10:35:06;3.05;;;3.05;;
9270;SDS011;4673;53.458;9.940;2023-09-12T10:37:33;2.58;;;2.58;;
9270;SDS011;4673;53.458;9.940;2023-09-12T10:40:02;3.30;;;3.30;;
9270;SDS011;4673;53.458;9.940;2023-09-12T10:42:32;2.83;;;2.83;;
9270;SDS011;4673;53.458;9.940;2023-09-12T10:44:59;3.20;;;3.20;;
9270;SDS011;4673;53.458;9.940;2023-09-12T10:47:28;3.05;;;3.05;;
9270;SDS011;4673;53.458;9.940;2023-09-12T10:49:55;3.10;;;3.10;;
9270;SDS011;4673;53.458;9.940;2023-09-12T10:52:25;2.75;;;2.75;;
9270;SDS011;4673;53.458;9.940;2023-09-12T10:54:51;2.78;;;2.78;;
9270;SDS011;4673;53.458;9.940;2023-09-12T10:57:18;2.40;;;2.40;;
9270;SDS011;4673;53.458;9.940;2023-09-12T11:02:36;3.45;;;3.45;;
9270;SDS011;4673;53.458;9.940;2023-09-12T11:05:03;3.25;;;3.25;;
9270;SDS011;4673;53.458;9.940;2023-09-12T11:07:55;2.60;;;2.60;;
9270;SDS011;4673;53.458;9.940;2023-09-12T11:10:22;2.60;;;2.60;;
9270;SDS011;4673;53.458;9.940;2023-09-12T11:12:56;2.58;;;2.58;;
9270;SDS011;4673;53.458;9.940;2023-09-12T11:15:25;2.40;;;2.40;;
9270;SDS011;4673;53.458;9.940;2023-09-12T11:18:04;1.88;;;1.88;;
9270;SDS011;4673;53.458;9.940;2023-09-12T11:20:50;3.47;;;3.47;;
9270;SDS011;4673;53.458;9.940;2023-09-12T11:23:28;2.40;;;2.40;;
9270;SDS011;4673;53.458;9.940;2023-09-12T11:26:05;2.33;;;2.33;;
9270;SDS011;4673;53.458;9.940;2023-09-12T11:28:31;2.70;;;2.70;;
9270;SDS011;4673;53.458;9.940;2023-09-12T11:30:57;2.10;;;2.10;;
9270;SDS011;4673;53.458;9.940;2023-09-12T11:33:26;2.00;;;2.00;;
9270;SDS011;4673;53.458;9.940;2023-09-12T11:35:53;1.90;;;1.90;;
9270;SDS011;4673;53.458;9.940;2023-09-12T11:38:29;1.98;;;1.98;;
9270;SDS011;4673;53.458;9.940;2023-09-12T11:40:56;1.83;;;1.83;;
9270;SDS011;4673;53.458;9.940;2023-09-12T11:43:23;2.15;;;2.15;;
9270;SDS011;4673;53.458;9.940;2023-09-12T11:45:51;2.08;;;2.08;;
9270;SDS011;4673;53.458;9.940;2023-09-12T11:48:18;1.83;;;1.83;;
9270;SDS011;4673;53.458;9.940;2023-09-12T11:50:49;2.10;;;2.10;;
9270;SDS011;4673;53.458;9.940;2023-09-12T11:53:18;1.73;;;1.73;;
9270;SDS011;4673;53.458;9.940;2023-09-12T11:55:51;1.48;;;1.48;;
9270;SDS011;4673;53.458;9.940;2023-09-12T11:58:22;1.98;;;1.98;;
9270;SDS011;4673;53.458;9.940;2023-09-12T12:00:50;1.60;;;1.60;;
9270;SDS011;4673;53.458;9.940;2023-09-12T12:03:18;1.92;;;1.92;;
9270;SDS011;4673;53.458;9.940;2023-09-12T12:05:46;1.60;;;1.60;;
9270;SDS011;4673;53.458;9.940;2023-09-12T12:08:12;1.33;;;1.33;;
9270;SDS011;4673;53.458;9.940;2023-09-12T12:10:39;1.77;;;1.77;;
9270;SDS011;4673;53.458;9.940;2023-09-12T12:13:06;1.38;;;1.38;;
9270;SDS011;4673;53.458;9.940;2023-09-12T12:15:42;1.75;;;1.75;;
9270;SDS011;4673;53.458;9.940;2023-09-12T12:18:07;1.92;;;1.92;;
9270;SDS011;4673;53.458;9.940;2023-09-12T12:20:33;1.70;;;1.70;;
9270;SDS011;4673;53.458;9.940;2023-09-12T12:22:59;1.60;;;1.60;;
9270;SDS011;4673;53.458;9.940;2023-09-12T12:25:25;1.83;;;1.83;;
9270;SDS011;4673;53.458;9.940;2023-09-12T12:27:50;1.85;;;1.85;;
9270;SDS011;4673;53.458;9.940;2023-09-12T12:30:17;1.60;;;1.60;;
9270;SDS011;4673;53.458;9.940;2023-09-12T12:32:44;1.60;;;1.60;;
9270;SDS011;4673;53.458;9.940;2023-09-12T12:35:18;1.50;;;1.50;;
9270;SDS011;4673;53.458;9.940;2023-09-12T12:37:44;1.25;;;1.25;;
9270;SDS011;4673;53.458;9.940;2023-09-12T12:40:14;1.50;;;1.50;;
9270;SDS011;4673;53.458;9.940;2023-09-12T12:42:40;1.65;;;1.65;;
9270;SDS011;4673;53.458;9.940;2023-09-12T12:45:17;1.58;;;1.58;;
9270;SDS011;4673;53.458;9.940;2023-09-12T12:47:44;1.55;;;1.55;;
9270;SDS011;4673;53.458;9.940;2023-09-12T12:50:14;1.52;;;1.52;;
9270;SDS011;4673;53.458;9.940;2023-09-12T12:52:42;1.80;;;1.80;;
9270;SDS011;4673;53.458;9.940;2023-09-12T12:55:11;1.77;;;1.77;;
9270;SDS011;4673;53.458;9.940;2023-09-12T12:57:40;1.58;;;1.58;;
9270;SDS011;4673;53.458;9.940;2023-09-12T13:00:11;2.15;;;2.15;;
9270;SDS011;4673;53.458;9.940;2023-09-12T13:02:38;1.60;;;1.60;;
9270;SDS011;4673;53.458;9.940;2023-09-12T13:05:06;1.42;;;1.42;;
9270;SDS011;4673;53.458;9.940;2023-09-12T13:07:46;1.40;;;1.40;;
9270;SDS011;4673;53.458;9.940;2023-09-12T13:10:12;1.98;;;1.98;;
9270;SDS011;4673;53.458;9.940;2023-09-12T13:12:37;1.55;;;1.55;;
9270;SDS011;4673;53.458;9.940;2023-09-12T13:15:06;1.40;;;1.40;;
9270;SDS011;4673;53.458;9.940;2023-09-12T13:17:32;1.83;;;1.83;;
9270;SDS011;4673;53.458;9.940;2023-09-12T13:19:58;1.35;;;1.35;;
9270;SDS011;4673;53.458;9.940;2023-09-12T13:22:24;1.65;;;1.65;;
9270;SDS011;4673;53.458;9.940;2023-09-12T13:24:49;1.15;;;1.15;;
9270;SDS011;4673;53.458;9.940;2023-09-12T13:27:15;1.90;;;1.90;;
9270;SDS011;4673;53.458;9.940;2023-09-12T13:29:41;1.45;;;1.45;;
9270;SDS011;4673;53.458;9.940;2023-09-12T13:32:06;2.15;;;2.15;;
9270;SDS011;4673;53.458;9.940;2023-09-12T13:34:32;1.52;;;1.52;;
9270;SDS011;4673;53.458;9.940;2023-09-12T13:36:58;1.75;;;1.75;;
9270;SDS011;4673;53.458;9.940;2023-09-12T13:39:24;2.03;;;2.03;;
9270;SDS011;4673;53.458;9.940;2023-09-12T13:41:49;2.03;;;2.03;;
9270;SDS011;4673;53.458;9.940;2023-09-12T13:44:16;2.42;;;2.42;;
9270;SDS011;4673;53.458;9.940;2023-09-12T13:46:43;1.63;;;1.63;;
9270;SDS011;4673;53.458;9.940;2023-09-12T13:49:12;1.65;;;1.65;;
9270;SDS011;4673;53.458;9.940;2023-09-12T13:51:38;1.63;;;1.63;;
9270;SDS011;4673;53.458;9.940;2023-09-12T13:54:04;1.92;;;1.92;;
9270;SDS011;4673;53.458;9.940;2023-09-12T13:56:31;2.13;;;2.13;;
9270;SDS011;4673;53.458;9.940;2023-09-12T13:58:57;1.45;;;1.45;;
9270;SDS011;4673;53.458;9.940;2023-09-12T14:01:22;2.28;;;2.28;;
9270;SDS011;4673;53.458;9.940;2023-09-12T14:03:48;2.22;;;2.22;;
9270;SDS011;4673;53.458;9.940;2023-09-12T14:06:14;2.05;;;2.05;;
9270;SDS011;4673;53.458;9.940;2023-09-12T14:08:39;2.00;;;2.00;;
9270;SDS011;4673;53.458;9.940;2023-09-12T14:11:05;2.15;;;2.15;;
9270;SDS011;4673;53.458;9.940;2023-09-12T14:13:31;2.00;;;2.00;;
9270;SDS011;4673;53.458;9.940;2023-09-12T14:15:56;1.60;;;1.60;;
9270;SDS011;4673;53.458;9.940;2023-09-12T14:18:22;2.00;;;2.00;;
9270;SDS011;4673;53.458;9.940;2023-09-12T14:20:49;2.05;;;2.05;;
9270;SDS011;4673;53.458;9.940;2023-09-12T14:23:16;2.20;;;2.20;;
9270;SDS011;4673;53.458;9.940;2023-09-12T14:25:41;2.90;;;2.90;;
9270;SDS011;4673;53.458;9.940;2023-09-12T14:28:07;2.28;;;2.28;;
9270;SDS011;4673;53.458;9.940;2023-09-12T14:30:33;2.05;;;2.05;;
9270;SDS011;4673;53.458;9.940;2023-09-12T14:33:02;2.25;;;2.25;;
9270;SDS011;4673;53.458;9.940;2023-09-12T14:35:29;2.70;;;2.70;;
9270;SDS011;4673;53.458;9.940;2023-09-12T14:37:54;1.77;;;1.77;;
9270;SDS011;4673;53.458;9.940;2023-09-12T14:40:20;2.13;;;2.13;;
9270;SDS011;4673;53.458;9.940;2023-09-12T14:42:46;1.50;;;1.50;;
9270;SDS011;4673;53.458;9.940;2023-09-12T14:45:12;1.70;;;1.70;;
9270;SDS011;4673;53.458;9.940;2023-09-12T14:47:39;2.00;;;2.00;;
9270;SDS011;4673;53.458;9.940;2023-09-12T14:50:04;1.58;;;1.58;;
9270;SDS011;4673;53.458;9.940;2023-09-12T14:52:30;1.80;;;1.80;;
9270;SDS011;4673;53.458;9.940;2023-09-12T14:54:56;1.80;;;1.80;;
9270;SDS011;4673;53.458;9.940;2023-09-12T14:57:23;1.83;;;1.83;;
9270;SDS011;4673;53.458;9.940;2023-09-12T14:59:49;1.83;;;1.83;;
9270;SDS011;4673;53.458;9.940;2023-09-12T15:02:15;1.73;;;1.73;;
9270;SDS011;4673;53.458;9.940;2023-09-12T15:04:41;2.42;;;2.42;;
9270;SDS011;4673;53.458;9.940;2023-09-12T15:07:07;1.63;;;1.63;;
9270;SDS011;4673;53.458;9.940;2023-09-12T15:09:33;1.48;;;1.48;;
9270;SDS011;4673;53.458;9.940;2023-09-12T15:11:59;1.60;;;1.60;;
9270;SDS011;4673;53.458;9.940;2023-09-12T15:14:24;1.88;;;1.88;;
9270;SDS011;4673;53.458;9.940;2023-09-12T15:16:50;1.60;;;1.60;;
9270;SDS011;4673;53.458;9.940;2023-09-12T15:19:16;1.48;;;1.48;;
9270;SDS011;4673;53.458;9.940;2023-09-12T15:21:41;1.48;;;1.48;;
9270;SDS011;4673;53.458;9.940;2023-09-12T15:24:07;2.22;;;2.22;;
9270;SDS011;4673;53.458;9.940;2023-09-12T15:26:33;2.17;;;2.17;;